METAR AND TAF INFORMATION
METAR FOR SBFN
ADDS - METARS form results

(0924 UTC 05 July 2020)
Data provider http://aviationweather.gov/metar/data/
 
Forecast for: SBFN (FERNANDO DE NORO, BR)
Text: TAF SBFN 050400Z 0506/0518 09014KT 9999 SCT018 TN26/0506Z TX27/0518Z RMK PED
Forecast period: 0600 to 1800 UTC 05 July 2020
Forecast type: FROM: standard forecast or significant change
Winds: from the E (90 degrees) at 16 MPH (14 knots; 7.2 m/s)
Visibility: 6 or more miles 10+ km)
Ceiling: at least 12,000 feet AGL
Clouds: scattered clouds at 1800 feet AGL
Weather: no significant weather forecast for this period

 AIRPORT MAP

 RUNWAY INFORMATION
Runway 12 Runway length 6053 ft Runway width 148 ft
Runway elevation 0 ft Runway displaced threshold 0 ft Runway heading 0
Runway 30 Runway length 6053 ft Runway width 148 ft
Runway elevation 0 ft Runway displaced threshold 0 ft Runway heading 0

 AIRPORT FREQUENCIES
Type AFIS Name NORONHA RD Frequency 125.9 MHZ

 AIRPORT NEAR NAVIGATION AIDS
Type VOR-DME Name Fernando Frequency 113700 KHZ
Type NDB Name Noronha Frequency 300 KHZ